createdAt,value
2023-08-17T00:01:45.822Z,18.20
2023-08-17T00:04:13.929Z,18.40
2023-08-17T00:06:42.216Z,18.20
2023-08-17T00:09:10.872Z,18.20
2023-08-17T00:11:38.975Z,18.00
2023-08-17T00:14:07.472Z,18.00
2023-08-17T00:16:36.920Z,17.90
2023-08-17T00:19:05.217Z,18.00
2023-08-17T00:21:33.712Z,18.00
2023-08-17T00:24:01.751Z,18.00
2023-08-17T00:26:29.792Z,18.10
2023-08-17T00:28:57.887Z,18.10
2023-08-17T00:31:26.008Z,18.10
2023-08-17T00:33:55.398Z,18.10
2023-08-17T00:36:23.509Z,18.20
2023-08-17T00:38:51.600Z,18.10
2023-08-17T00:41:19.659Z,18.00
2023-08-17T00:43:47.740Z,18.00
2023-08-17T00:46:16.371Z,17.90
2023-08-17T00:48:45.576Z,17.90
2023-08-17T00:51:15.384Z,17.90
2023-08-17T00:53:43.630Z,17.90
2023-08-17T00:56:11.663Z,18.00
2023-08-17T00:58:39.805Z,18.00
2023-08-17T01:01:07.849Z,18.00
2023-08-17T01:03:36.864Z,18.00
2023-08-17T01:06:05.757Z,18.00
2023-08-17T01:08:35.497Z,18.00
2023-08-17T01:11:09.566Z,18.00
2023-08-17T01:13:44.712Z,18.00
2023-08-17T01:16:17.985Z,18.00
2023-08-17T01:18:48.286Z,17.90
2023-08-17T01:21:19.113Z,17.80
2023-08-17T01:23:50.951Z,17.70
2023-08-17T01:26:19.045Z,17.60
2023-08-17T01:28:48.850Z,17.70
2023-08-17T01:31:23.458Z,17.60
2023-08-17T01:33:56.514Z,17.60
2023-08-17T01:36:28.660Z,17.60
2023-08-17T01:38:59.293Z,17.60
2023-08-17T01:41:29.043Z,17.60
2023-08-17T01:43:58.865Z,17.60
2023-08-17T01:46:32.635Z,17.60
2023-08-17T01:49:00.748Z,17.70
2023-08-17T01:51:29.029Z,17.80
2023-08-17T01:53:58.460Z,17.80
2023-08-17T01:56:26.519Z,17.80
2023-08-17T01:58:54.563Z,17.70
2023-08-17T02:01:22.547Z,17.60
2023-08-17T02:03:50.579Z,17.60
2023-08-17T02:06:18.646Z,17.50
2023-08-17T02:08:46.761Z,17.40
2023-08-17T02:11:16.160Z,17.30
2023-08-17T02:13:44.382Z,17.30
2023-08-17T02:16:12.465Z,17.30
2023-08-17T02:18:40.529Z,17.30
2023-08-17T02:21:08.639Z,17.40
2023-08-17T02:23:36.931Z,17.40
2023-08-17T02:26:05.014Z,17.50
2023-08-17T02:28:34.434Z,17.50
2023-08-17T02:31:02.637Z,17.50
2023-08-17T02:33:30.772Z,17.50
2023-08-17T02:35:58.872Z,17.60
2023-08-17T02:38:26.957Z,17.60
2023-08-17T02:40:55.013Z,17.60
2023-08-17T02:43:23.124Z,17.70
2023-08-17T02:45:52.556Z,17.80
2023-08-17T02:48:20.927Z,17.80
2023-08-17T02:50:49.207Z,17.80
2023-08-17T02:53:17.293Z,17.70
2023-08-17T02:55:45.348Z,17.60
2023-08-17T02:58:13.393Z,17.60
2023-08-17T03:00:41.422Z,17.50
2023-08-17T03:03:11.020Z,17.50
2023-08-17T03:05:39.195Z,17.60
2023-08-17T03:08:07.744Z,17.60
2023-08-17T03:10:35.964Z,17.60
2023-08-17T03:13:04.108Z,17.70
2023-08-17T03:15:32.246Z,17.70
2023-08-17T03:18:00.347Z,17.70
2023-08-17T03:20:29.734Z,17.70
2023-08-17T03:22:57.825Z,17.80
2023-08-17T03:25:25.964Z,17.80
2023-08-17T03:27:54.027Z,17.90
2023-08-17T03:30:22.055Z,18.00
2023-08-17T03:32:50.119Z,18.00
2023-08-17T03:35:19.468Z,18.10
2023-08-17T03:37:48.862Z,18.10
2023-08-17T03:40:16.995Z,18.20
2023-08-17T03:42:45.083Z,18.20
2023-08-17T03:45:13.118Z,18.30
2023-08-17T03:47:41.161Z,18.30
2023-08-17T03:50:11.117Z,18.30
2023-08-17T03:52:39.168Z,18.30
2023-08-17T03:55:09.401Z,18.40
2023-08-17T03:57:39.383Z,18.40
2023-08-17T04:00:11.412Z,18.50
2023-08-17T04:02:39.702Z,18.40
2023-08-17T04:05:08.616Z,18.40
2023-08-17T04:07:36.728Z,18.50
2023-08-17T04:10:06.327Z,18.50
2023-08-17T04:12:35.896Z,18.50
2023-08-17T04:15:04.077Z,18.60
2023-08-17T04:17:32.283Z,18.60
2023-08-17T04:20:00.500Z,18.70
2023-08-17T04:22:28.556Z,18.80
2023-08-17T04:24:56.640Z,18.80
2023-08-17T04:27:24.897Z,18.70
2023-08-17T04:29:54.532Z,18.70
2023-08-17T04:32:22.599Z,18.70
2023-08-17T04:34:52.319Z,18.70
2023-08-17T04:37:21.952Z,18.70
2023-08-17T04:39:50.334Z,18.70
2023-08-17T04:42:18.502Z,18.60
2023-08-17T04:44:46.561Z,18.70
2023-08-17T04:47:15.985Z,18.70
2023-08-17T04:49:44.083Z,18.80
2023-08-17T04:52:12.135Z,18.80
2023-08-17T04:54:40.197Z,18.80
2023-08-17T04:57:08.227Z,18.90
2023-08-17T04:59:36.324Z,18.90
2023-08-17T05:02:04.410Z,18.90
2023-08-17T05:04:33.801Z,19.00
2023-08-17T05:07:01.877Z,19.10
2023-08-17T05:09:30.081Z,19.10
2023-08-17T05:11:58.142Z,19.10
2023-08-17T05:14:26.181Z,19.20
2023-08-17T05:16:54.246Z,19.20
2023-08-17T05:19:22.340Z,19.20
2023-08-17T05:21:52.420Z,19.30
2023-08-17T05:24:21.597Z,19.40
2023-08-17T05:26:49.782Z,19.40
2023-08-17T05:29:17.874Z,19.50
2023-08-17T05:31:46.043Z,19.60
2023-08-17T05:34:14.366Z,19.60
2023-08-17T05:36:42.455Z,19.60
2023-08-17T05:39:11.892Z,19.60
2023-08-17T05:41:39.994Z,19.60
2023-08-17T05:44:08.855Z,19.70
2023-08-17T05:46:36.954Z,19.70
2023-08-17T05:49:06.731Z,19.70
2023-08-17T05:51:34.942Z,19.70
2023-08-17T05:54:03.017Z,19.70
2023-08-17T05:56:32.430Z,19.70
2023-08-17T05:59:00.580Z,19.80
2023-08-17T06:01:28.692Z,19.80
2023-08-17T06:03:56.837Z,19.80
2023-08-17T06:06:25.075Z,19.80
2023-08-17T06:08:53.141Z,19.70
2023-08-17T06:11:21.276Z,19.70
2023-08-17T06:13:50.687Z,19.70
2023-08-17T06:16:18.739Z,19.70
2023-08-17T06:18:47.063Z,19.70
2023-08-17T06:21:15.084Z,19.70
2023-08-17T06:23:43.096Z,19.70
2023-08-17T06:26:11.133Z,19.70
2023-08-17T06:28:39.172Z,19.70
2023-08-17T06:31:09.033Z,19.80
2023-08-17T06:33:37.186Z,19.80
2023-08-17T06:36:05.713Z,19.80
2023-08-17T06:38:33.731Z,19.90
2023-08-17T06:41:01.728Z,19.90
2023-08-17T06:43:29.804Z,19.90
2023-08-17T06:46:00.299Z,19.90
2023-08-17T06:48:29.837Z,19.90
2023-08-17T06:50:57.873Z,19.70
2023-08-17T06:53:25.987Z,19.70
2023-08-17T06:55:54.067Z,19.80
2023-08-17T06:58:22.109Z,19.80
2023-08-17T07:00:50.230Z,19.80
2023-08-17T07:03:18.411Z,19.90
2023-08-17T07:05:47.923Z,20.00
2023-08-17T07:08:15.945Z,20.10
2023-08-17T07:10:43.950Z,20.20
2023-08-17T07:13:11.995Z,20.30
2023-08-17T07:15:40.138Z,20.40
2023-08-17T07:18:08.270Z,20.50
2023-08-17T07:20:36.280Z,20.60
2023-08-17T07:23:05.988Z,20.70
2023-08-17T07:25:34.217Z,20.80
2023-08-17T07:28:02.392Z,20.80
2023-08-17T07:30:30.606Z,20.90
2023-08-17T07:32:58.784Z,20.90
2023-08-17T07:35:26.896Z,20.80
2023-08-17T07:38:07.309Z,20.80
2023-08-17T07:40:38.603Z,20.80
2023-08-17T07:43:06.679Z,20.80
2023-08-17T07:45:34.996Z,20.90
2023-08-17T07:48:03.144Z,21.00
2023-08-17T07:50:31.241Z,21.10
2023-08-17T07:52:59.299Z,21.10
2023-08-17T07:55:28.672Z,21.10
2023-08-17T07:57:58.099Z,21.20
2023-08-17T08:00:26.143Z,21.20
2023-08-17T08:02:54.289Z,21.30
2023-08-17T08:05:22.436Z,21.40
2023-08-17T08:07:50.513Z,21.40
2023-08-17T08:10:18.676Z,21.50
2023-08-17T08:12:46.720Z,21.50
2023-08-17T08:15:16.362Z,21.50
2023-08-17T08:17:44.443Z,21.70
2023-08-17T08:20:13.184Z,21.80
2023-08-17T08:22:41.277Z,21.90
2023-08-17T08:25:09.854Z,21.90
2023-08-17T08:27:38.413Z,21.90
2023-08-17T08:30:08.027Z,21.80
2023-08-17T08:32:37.455Z,21.90
2023-08-17T08:35:06.138Z,21.90
2023-08-17T08:37:34.701Z,21.80
2023-08-17T08:40:02.753Z,22.00
2023-08-17T08:42:30.967Z,22.00
2023-08-17T08:44:59.095Z,21.90
2023-08-17T08:47:29.045Z,21.70
2023-08-17T08:50:03.627Z,21.70
2023-08-17T08:52:36.789Z,21.70
2023-08-17T08:55:18.060Z,21.70
2023-08-17T08:57:51.689Z,21.80
2023-08-17T09:00:21.235Z,21.90
2023-08-17T09:02:50.372Z,22.00
2023-08-17T09:05:20.767Z,22.20
2023-08-17T09:07:51.012Z,22.30
2023-08-17T09:10:19.476Z,22.40
2023-08-17T09:12:50.248Z,22.50
2023-08-17T09:15:18.769Z,22.50
2023-08-17T09:17:49.008Z,22.50
2023-08-17T09:23:16.398Z,22.70
2023-08-17T09:25:46.748Z,22.70
2023-08-17T09:28:16.851Z,22.70
2023-08-17T09:30:59.221Z,22.80
2023-08-17T09:33:29.013Z,22.90
2023-08-17T09:36:00.532Z,22.90
2023-08-17T09:38:29.323Z,23.10
2023-08-17T09:40:58.990Z,23.30
2023-08-17T09:43:29.433Z,23.30
2023-08-17T09:45:57.954Z,23.40
2023-08-17T09:48:32.992Z,23.50
2023-08-17T09:51:03.579Z,23.60
2023-08-17T09:53:36.277Z,23.70
2023-08-17T09:56:06.083Z,23.80
2023-08-17T09:58:34.186Z,23.90
2023-08-17T10:01:05.833Z,24.00
2023-08-17T10:03:36.085Z,24.20
2023-08-17T10:06:07.745Z,24.40
2023-08-17T10:08:41.743Z,24.70
2023-08-17T10:11:10.857Z,24.90
2023-08-17T10:13:44.948Z,25.10
2023-08-17T10:16:30.215Z,25.20
2023-08-17T10:19:07.258Z,25.30
2023-08-17T10:21:42.279Z,25.40
2023-08-17T10:24:11.075Z,25.60
2023-08-17T10:26:39.417Z,25.80
2023-08-17T10:29:15.226Z,25.90
2023-08-17T10:31:47.648Z,26.00
2023-08-17T10:34:16.693Z,26.00
2023-08-17T10:36:48.422Z,26.10
2023-08-17T10:39:29.903Z,26.10
2023-08-17T10:41:59.438Z,26.00
2023-08-17T10:44:45.304Z,26.00
2023-08-17T10:47:24.132Z,26.00
2023-08-17T10:49:53.191Z,26.00
2023-08-17T10:52:33.767Z,26.00
2023-08-17T10:55:03.226Z,26.00
2023-08-17T10:57:36.276Z,26.00
2023-08-17T11:00:20.735Z,26.20
2023-08-17T11:02:55.464Z,26.20
2023-08-17T11:05:40.727Z,26.20
2023-08-17T11:08:12.082Z,26.30
2023-08-17T11:10:40.418Z,26.40
2023-08-17T11:13:08.622Z,26.40
2023-08-17T11:15:43.372Z,26.40
2023-08-17T11:18:12.459Z,26.60
2023-08-17T11:20:42.779Z,26.60
2023-08-17T11:23:12.655Z,26.80
2023-08-17T11:25:41.048Z,27.00
2023-08-17T11:28:10.798Z,26.90
2023-08-17T11:30:40.182Z,27.10
2023-08-17T11:33:09.735Z,27.30
2023-08-17T11:35:38.335Z,27.30
2023-08-17T11:38:09.080Z,27.20
2023-08-17T11:40:38.829Z,27.30
2023-08-17T11:43:07.656Z,27.50
2023-08-17T11:45:36.261Z,27.60
2023-08-17T11:48:05.407Z,27.70
2023-08-17T11:50:33.814Z,27.80
2023-08-17T11:53:02.542Z,28.00
2023-08-17T11:55:31.023Z,28.10
2023-08-17T11:58:00.413Z,28.00
2023-08-17T12:00:28.551Z,28.10
2023-08-17T12:02:56.773Z,28.10
2023-08-17T12:05:28.111Z,28.20
2023-08-17T12:07:56.465Z,28.30
2023-08-17T12:10:24.659Z,28.20
2023-08-17T12:12:53.151Z,28.20
2023-08-17T12:15:22.737Z,28.20
2023-08-17T12:17:53.854Z,28.10
2023-08-17T12:20:23.005Z,28.00
2023-08-17T12:22:51.092Z,28.00
2023-08-17T12:25:23.940Z,28.00
2023-08-17T12:27:52.108Z,28.00
2023-08-17T12:30:33.442Z,28.00
2023-08-17T12:33:01.545Z,28.10
2023-08-17T12:35:29.657Z,28.00
2023-08-17T12:37:57.737Z,27.90
2023-08-17T12:40:25.961Z,27.80
2023-08-17T12:42:53.969Z,27.80
2023-08-17T12:45:22.025Z,27.80
2023-08-17T12:47:51.411Z,27.80
2023-08-17T12:50:19.530Z,27.70
2023-08-17T12:52:47.757Z,27.60
2023-08-17T12:55:16.116Z,27.50
2023-08-17T12:57:44.177Z,27.30
2023-08-17T13:00:13.367Z,27.20
2023-08-17T13:02:41.504Z,27.00
2023-08-17T13:05:13.434Z,26.80
2023-08-17T13:07:41.548Z,26.60
2023-08-17T13:10:09.932Z,26.50
2023-08-17T13:12:37.960Z,26.30
2023-08-17T13:15:07.168Z,26.10
2023-08-17T13:17:35.319Z,25.50
2023-08-17T13:20:04.937Z,25.70
2023-08-17T13:22:34.499Z,25.70
2023-08-17T13:25:02.616Z,25.70
2023-08-17T13:27:30.680Z,25.60
2023-08-17T13:29:59.866Z,25.60
2023-08-17T13:32:28.379Z,25.60
2023-08-17T13:34:56.775Z,25.60
2023-08-17T13:37:24.810Z,25.60
2023-08-17T13:39:54.267Z,25.60
2023-08-17T13:42:22.586Z,25.50
2023-08-17T13:44:50.620Z,25.50
2023-08-17T13:47:18.828Z,25.50
2023-08-17T13:49:46.914Z,25.50
2023-08-17T13:52:14.987Z,25.40
2023-08-17T13:54:43.082Z,25.40
2023-08-17T13:57:12.588Z,25.40
2023-08-17T13:59:40.861Z,25.40
2023-08-17T14:02:09.645Z,25.50
2023-08-17T14:04:37.768Z,25.50
2023-08-17T14:07:06.012Z,25.40
2023-08-17T14:09:34.098Z,25.30
2023-08-17T14:12:02.818Z,25.20
2023-08-17T14:14:32.437Z,25.30
2023-08-17T14:17:00.578Z,25.40
2023-08-17T14:19:28.943Z,25.40
2023-08-17T14:21:57.158Z,25.50
2023-08-17T14:24:25.270Z,25.70
2023-08-17T14:26:53.310Z,25.70
2023-08-17T14:29:21.338Z,25.80
2023-08-17T14:31:56.239Z,26.00
2023-08-17T14:34:24.567Z,26.30
2023-08-17T14:36:52.679Z,26.60
2023-08-17T14:39:20.765Z,26.90
2023-08-17T14:41:48.873Z,27.20
2023-08-17T14:44:18.364Z,27.50
2023-08-17T14:46:46.462Z,27.80
2023-08-17T14:49:15.925Z,28.20
2023-08-17T14:51:44.964Z,28.60
2023-08-17T14:54:13.005Z,29.10
2023-08-17T14:56:41.376Z,29.50
2023-08-17T14:59:11.055Z,29.60
2023-08-17T15:01:39.436Z,29.70
2023-08-17T15:04:07.815Z,29.50
2023-08-17T15:09:10.310Z,29.50
2023-08-17T15:11:38.471Z,29.40
2023-08-17T15:14:06.626Z,29.50
2023-08-17T15:16:34.691Z,29.80
2023-08-17T15:19:02.736Z,29.90
2023-08-17T15:21:30.725Z,30.10
2023-08-17T15:24:00.762Z,30.20
2023-08-17T15:26:30.132Z,30.10
2023-08-17T15:28:58.393Z,30.00
2023-08-17T15:31:26.576Z,30.00
2023-08-17T15:33:54.649Z,30.10
2023-08-17T15:36:27.398Z,30.10
2023-08-17T15:38:55.496Z,30.00
2023-08-17T15:41:24.962Z,30.00
2023-08-17T15:43:53.023Z,30.00
2023-08-17T15:46:21.039Z,30.20
2023-08-17T15:48:49.778Z,30.20
2023-08-17T15:51:17.851Z,29.90
2023-08-17T15:53:45.847Z,29.50
2023-08-17T15:56:13.913Z,29.30
2023-08-17T15:58:44.253Z,29.20
2023-08-17T16:01:12.331Z,29.10
2023-08-17T16:03:40.424Z,29.20
2023-08-17T16:06:08.670Z,29.10
2023-08-17T16:08:48.025Z,28.90
2023-08-17T16:11:17.162Z,28.90
2023-08-17T16:13:49.502Z,28.90
2023-08-17T16:16:17.635Z,28.80
2023-08-17T16:18:45.690Z,28.90
2023-08-17T16:21:15.094Z,28.80
2023-08-17T16:23:44.516Z,28.60
2023-08-17T16:26:12.574Z,28.50
2023-08-17T16:28:40.639Z,28.50
2023-08-17T16:31:10.317Z,28.40
2023-08-17T16:33:41.321Z,28.40
2023-08-17T16:36:09.576Z,28.30
2023-08-17T16:38:37.873Z,28.30
2023-08-17T16:41:06.159Z,28.10
2023-08-17T16:43:34.252Z,28.00
2023-08-17T16:46:02.319Z,27.90
2023-08-17T16:48:31.882Z,27.80
2023-08-17T16:50:59.956Z,27.70
2023-08-17T16:53:27.985Z,27.50
2023-08-17T16:55:56.077Z,27.40
2023-08-17T16:58:24.118Z,27.30
2023-08-17T17:00:52.694Z,27.20
2023-08-17T17:03:20.708Z,27.20
2023-08-17T17:05:50.140Z,27.20
2023-08-17T17:08:18.200Z,27.10
2023-08-17T17:10:46.218Z,27.00
2023-08-17T17:13:14.304Z,27.00
2023-08-17T17:15:42.420Z,26.90
2023-08-17T17:18:10.631Z,26.80
2023-08-17T17:20:38.744Z,26.80
2023-08-17T17:23:08.145Z,26.80
2023-08-17T17:25:36.151Z,26.70
2023-08-17T17:28:04.386Z,26.60
2023-08-17T17:30:32.398Z,26.60
2023-08-17T17:33:00.443Z,26.50
2023-08-17T17:35:28.492Z,26.50
2023-08-17T17:37:56.527Z,26.40
2023-08-17T17:40:25.920Z,26.40
2023-08-17T17:42:54.007Z,26.30
2023-08-17T17:45:22.051Z,26.20
2023-08-17T17:47:50.098Z,26.20
2023-08-17T17:50:18.217Z,26.10
2023-08-17T17:52:48.562Z,26.10
2023-08-17T17:55:16.961Z,26.00
2023-08-17T17:57:47.104Z,26.10
2023-08-17T18:00:16.127Z,26.00
2023-08-17T18:02:44.387Z,26.00
2023-08-17T18:05:12.941Z,26.00
2023-08-17T18:07:41.137Z,26.00
2023-08-17T18:10:10.049Z,25.90
2023-08-17T18:12:38.139Z,25.90
2023-08-17T18:15:08.739Z,25.80
2023-08-17T18:17:36.871Z,25.80
2023-08-17T18:20:05.704Z,25.80
2023-08-17T18:22:33.835Z,25.70
2023-08-17T18:25:01.907Z,25.70
2023-08-17T18:27:31.940Z,25.40
2023-08-17T18:30:00.322Z,25.20
2023-08-17T18:32:29.765Z,25.00
2023-08-17T18:34:57.845Z,24.90
2023-08-17T18:37:25.984Z,24.80
2023-08-17T18:39:54.305Z,24.80
2023-08-17T18:42:22.291Z,24.80
2023-08-17T18:44:50.332Z,24.70
2023-08-17T18:47:18.374Z,24.50
2023-08-17T18:49:47.727Z,24.20
2023-08-17T18:52:15.846Z,24.00
2023-08-17T18:54:59.484Z,23.80
2023-08-17T18:57:27.619Z,23.70
2023-08-17T18:59:55.879Z,23.60
2023-08-17T19:02:24.248Z,23.60
2023-08-17T19:04:53.696Z,23.60
2023-08-17T19:07:21.697Z,23.50
2023-08-17T19:09:49.744Z,23.30
2023-08-17T19:12:18.983Z,23.20
2023-08-17T19:14:47.832Z,23.10
2023-08-17T19:17:15.926Z,23.00
2023-08-17T19:19:44.077Z,22.90
2023-08-17T19:22:13.534Z,22.90
2023-08-17T19:24:41.628Z,22.90
2023-08-17T19:27:09.656Z,22.90
2023-08-17T19:29:37.663Z,22.90
2023-08-17T19:32:05.988Z,22.90
2023-08-17T19:34:34.034Z,22.90
2023-08-17T19:37:02.130Z,22.90
2023-08-17T19:39:31.529Z,22.90
2023-08-17T19:41:59.557Z,22.90
2023-08-17T19:44:28.413Z,22.80
2023-08-17T19:46:56.581Z,23.30
2023-08-17T19:49:24.607Z,22.80
2023-08-17T19:51:52.623Z,22.70
2023-08-17T19:54:20.804Z,22.50
2023-08-17T19:56:50.555Z,22.40
2023-08-17T19:59:19.178Z,22.40
2023-08-17T20:01:49.620Z,22.40
2023-08-17T20:04:17.732Z,22.10
2023-08-17T20:06:46.914Z,22.30
2023-08-17T20:09:15.549Z,22.40
2023-08-17T20:11:43.621Z,22.50
2023-08-17T20:14:15.303Z,22.50
2023-08-17T20:16:44.888Z,22.40
2023-08-17T20:19:13.357Z,21.80
2023-08-17T20:21:41.484Z,22.40
2023-08-17T20:24:10.804Z,22.30
2023-08-17T20:26:39.433Z,22.40
2023-08-17T20:29:07.480Z,22.40
2023-08-17T20:31:37.114Z,22.50
2023-08-17T20:34:05.308Z,22.50
2023-08-17T20:36:33.403Z,22.30
2023-08-17T20:39:08.473Z,22.40
2023-08-17T20:41:36.971Z,22.30
2023-08-17T20:44:05.428Z,22.40
2023-08-17T20:46:33.466Z,22.30
2023-08-17T20:49:05.481Z,22.40
2023-08-17T20:51:33.597Z,22.30
2023-08-17T20:54:01.735Z,22.40
2023-08-17T20:56:30.118Z,22.40
2023-08-17T20:58:58.195Z,22.30
2023-08-17T21:01:26.852Z,22.20
2023-08-17T21:03:54.995Z,22.10
2023-08-17T21:06:24.728Z,21.90
2023-08-17T21:08:52.774Z,21.90
2023-08-17T21:11:20.983Z,21.90
2023-08-17T21:13:49.085Z,21.90
2023-08-17T21:16:17.125Z,21.90
2023-08-17T21:18:45.194Z,21.90
2023-08-17T21:21:13.248Z,21.90
2023-08-17T21:23:42.949Z,21.90
2023-08-17T21:26:11.530Z,22.00
2023-08-17T21:28:39.553Z,22.00
2023-08-17T21:31:07.827Z,22.10
2023-08-17T21:33:35.897Z,22.00
2023-08-17T21:36:04.632Z,21.80
2023-08-17T21:38:32.714Z,21.80
2023-08-17T21:41:02.594Z,21.70
2023-08-17T21:43:31.331Z,21.70
2023-08-17T21:46:00.127Z,21.80
2023-08-17T21:48:28.407Z,21.70
2023-08-17T21:50:56.603Z,21.80
2023-08-17T21:53:24.642Z,21.70
2023-08-17T21:55:53.637Z,21.70
2023-08-17T21:58:22.999Z,21.40
2023-08-17T22:00:52.615Z,21.40
2023-08-17T22:03:20.799Z,21.30
